sensor_id;sensor_type;location;lat;lon;timestamp;P1;durP1;ratioP1;P2;durP2;ratioP2
16642;SDS011;8435;52.184;5.406;2023-07-20T00:02:02;2.00;;;1.90;;
16642;SDS011;8435;52.184;5.406;2023-07-20T00:04:30;1.42;;;1.33;;
16642;SDS011;8435;52.184;5.406;2023-07-20T00:06:57;1.73;;;1.63;;
16642;SDS011;8435;52.184;5.406;2023-07-20T00:09:25;1.75;;;1.65;;
16642;SDS011;8435;52.184;5.406;2023-07-20T00:11:54;1.80;;;1.65;;
16642;SDS011;8435;52.184;5.406;2023-07-20T00:14:21;1.52;;;1.42;;
16642;SDS011;8435;52.184;5.406;2023-07-20T00:16:49;2.05;;;1.65;;
16642;SDS011;8435;52.184;5.406;2023-07-20T00:19:21;1.58;;;1.45;;
16642;SDS011;8435;52.184;5.406;2023-07-20T00:21:49;1.13;;;1.10;;
16642;SDS011;8435;52.184;5.406;2023-07-20T00:24:16;1.63;;;1.52;;
16642;SDS011;8435;52.184;5.406;2023-07-20T00:26:44;1.35;;;1.20;;
16642;SDS011;8435;52.184;5.406;2023-07-20T00:29:13;1.20;;;1.10;;
16642;SDS011;8435;52.184;5.406;2023-07-20T00:31:39;1.23;;;1.00;;
16642;SDS011;8435;52.184;5.406;2023-07-20T00:34:08;0.80;;;0.80;;
16642;SDS011;8435;52.184;5.406;2023-07-20T00:36:35;0.77;;;0.77;;
16642;SDS011;8435;52.184;5.406;2023-07-20T00:39:02;0.70;;;0.70;;
16642;SDS011;8435;52.184;5.406;2023-07-20T00:41:29;0.70;;;0.70;;
16642;SDS011;8435;52.184;5.406;2023-07-20T00:43:56;0.70;;;0.70;;
16642;SDS011;8435;52.184;5.406;2023-07-20T00:46:25;0.60;;;0.60;;
16642;SDS011;8435;52.184;5.406;2023-07-20T00:48:54;0.70;;;0.70;;
16642;SDS011;8435;52.184;5.406;2023-07-20T00:51:24;0.63;;;0.63;;
16642;SDS011;8435;52.184;5.406;2023-07-20T00:53:52;0.98;;;0.88;;
16642;SDS011;8435;52.184;5.406;2023-07-20T00:56:19;0.60;;;0.60;;
16642;SDS011;8435;52.184;5.406;2023-07-20T00:58:47;0.70;;;0.70;;
16642;SDS011;8435;52.184;5.406;2023-07-20T01:01:14;0.60;;;0.60;;
16642;SDS011;8435;52.184;5.406;2023-07-20T01:03:42;0.65;;;0.65;;
16642;SDS011;8435;52.184;5.406;2023-07-20T01:06:11;0.77;;;0.70;;
16642;SDS011;8435;52.184;5.406;2023-07-20T01:08:51;0.60;;;0.60;;
16642;SDS011;8435;52.184;5.406;2023-07-20T01:11:36;0.67;;;0.63;;
16642;SDS011;8435;52.184;5.406;2023-07-20T01:14:04;0.82;;;0.82;;
16642;SDS011;8435;52.184;5.406;2023-07-20T01:16:32;0.90;;;0.90;;
16642;SDS011;8435;52.184;5.406;2023-07-20T01:19:01;0.90;;;0.90;;
16642;SDS011;8435;52.184;5.406;2023-07-20T01:21:30;1.20;;;1.10;;
16642;SDS011;8435;52.184;5.406;2023-07-20T01:30:17;0.80;;;0.80;;
16642;SDS011;8435;52.184;5.406;2023-07-20T01:33:18;1.40;;;1.30;;
16642;SDS011;8435;52.184;5.406;2023-07-20T01:35:49;0.90;;;0.90;;
16642;SDS011;8435;52.184;5.406;2023-07-20T01:38:19;1.10;;;1.00;;
16642;SDS011;8435;52.184;5.406;2023-07-20T01:40:50;0.80;;;0.77;;
16642;SDS011;8435;52.184;5.406;2023-07-20T01:43:18;0.90;;;0.90;;
16642;SDS011;8435;52.184;5.406;2023-07-20T01:45:45;1.23;;;1.13;;
16642;SDS011;8435;52.184;5.406;2023-07-20T01:48:12;1.40;;;1.30;;
16642;SDS011;8435;52.184;5.406;2023-07-20T01:50:42;1.20;;;1.10;;
16642;SDS011;8435;52.184;5.406;2023-07-20T01:53:09;1.17;;;1.17;;
16642;SDS011;8435;52.184;5.406;2023-07-20T01:55:36;1.27;;;1.20;;
16642;SDS011;8435;52.184;5.406;2023-07-20T01:58:03;1.40;;;1.30;;
16642;SDS011;8435;52.184;5.406;2023-07-20T02:00:31;1.20;;;1.20;;
16642;SDS011;8435;52.184;5.406;2023-07-20T02:03:03;1.87;;;1.43;;
16642;SDS011;8435;52.184;5.406;2023-07-20T02:05:30;1.13;;;1.03;;
16642;SDS011;8435;52.184;5.406;2023-07-20T02:07:58;1.33;;;1.33;;
16642;SDS011;8435;52.184;5.406;2023-07-20T02:10:25;1.33;;;1.33;;
16642;SDS011;8435;52.184;5.406;2023-07-20T02:12:52;1.10;;;1.00;;
16642;SDS011;8435;52.184;5.406;2023-07-20T02:15:20;1.60;;;1.50;;
16642;SDS011;8435;52.184;5.406;2023-07-20T02:17:47;1.50;;;1.40;;
16642;SDS011;8435;52.184;5.406;2023-07-20T02:20:14;1.30;;;1.30;;
16642;SDS011;8435;52.184;5.406;2023-07-20T02:22:42;1.50;;;1.40;;
16642;SDS011;8435;52.184;5.406;2023-07-20T02:25:10;2.57;;;1.40;;
16642;SDS011;8435;52.184;5.406;2023-07-20T02:27:37;2.23;;;1.80;;
16642;SDS011;8435;52.184;5.406;2023-07-20T02:30:05;2.10;;;1.43;;
16642;SDS011;8435;52.184;5.406;2023-07-20T02:32:34;1.30;;;1.30;;
16642;SDS011;8435;52.184;5.406;2023-07-20T02:35:01;1.57;;;1.47;;
16642;SDS011;8435;52.184;5.406;2023-07-20T02:37:28;1.70;;;1.60;;
16642;SDS011;8435;52.184;5.406;2023-07-20T02:39:56;1.60;;;1.50;;
16642;SDS011;8435;52.184;5.406;2023-07-20T02:42:24;1.50;;;1.40;;
16642;SDS011;8435;52.184;5.406;2023-07-20T02:44:54;1.60;;;1.50;;
16642;SDS011;8435;52.184;5.406;2023-07-20T02:47:20;1.50;;;1.40;;
16642;SDS011;8435;52.184;5.406;2023-07-20T02:49:47;1.50;;;1.30;;
16642;SDS011;8435;52.184;5.406;2023-07-20T02:52:14;1.47;;;1.40;;
16642;SDS011;8435;52.184;5.406;2023-07-20T02:54:43;1.67;;;1.57;;
16642;SDS011;8435;52.184;5.406;2023-07-20T02:57:10;1.53;;;1.43;;
16642;SDS011;8435;52.184;5.406;2023-07-20T02:59:39;1.90;;;1.30;;
16642;SDS011;8435;52.184;5.406;2023-07-20T03:02:06;1.70;;;1.60;;
16642;SDS011;8435;52.184;5.406;2023-07-20T03:04:34;1.63;;;1.53;;
16642;SDS011;8435;52.184;5.406;2023-07-20T03:07:02;1.60;;;1.43;;
16642;SDS011;8435;52.184;5.406;2023-07-20T03:09:29;1.90;;;1.60;;
16642;SDS011;8435;52.184;5.406;2023-07-20T03:11:56;1.43;;;1.43;;
16642;SDS011;8435;52.184;5.406;2023-07-20T03:14:22;1.90;;;1.47;;
16642;SDS011;8435;52.184;5.406;2023-07-20T03:16:51;1.70;;;1.57;;
16642;SDS011;8435;52.184;5.406;2023-07-20T03:19:18;1.30;;;1.30;;
16642;SDS011;8435;52.184;5.406;2023-07-20T03:21:45;1.20;;;1.20;;
16642;SDS011;8435;52.184;5.406;2023-07-20T03:24:12;1.30;;;1.30;;
16642;SDS011;8435;52.184;5.406;2023-07-20T03:26:38;1.60;;;1.50;;
16642;SDS011;8435;52.184;5.406;2023-07-20T03:29:05;1.60;;;1.40;;
16642;SDS011;8435;52.184;5.406;2023-07-20T03:31:33;1.70;;;1.60;;
16642;SDS011;8435;52.184;5.406;2023-07-20T03:34:01;1.30;;;1.20;;
16642;SDS011;8435;52.184;5.406;2023-07-20T03:36:28;1.23;;;1.23;;
16642;SDS011;8435;52.184;5.406;2023-07-20T03:38:56;1.80;;;1.57;;
16642;SDS011;8435;52.184;5.406;2023-07-20T03:41:23;1.67;;;1.57;;
16642;SDS011;8435;52.184;5.406;2023-07-20T03:43:50;1.77;;;1.67;;
16642;SDS011;8435;52.184;5.406;2023-07-20T03:46:17;1.73;;;1.63;;
16642;SDS011;8435;52.184;5.406;2023-07-20T03:48:44;1.43;;;1.40;;
16642;SDS011;8435;52.184;5.406;2023-07-20T03:51:12;1.60;;;1.50;;
16642;SDS011;8435;52.184;5.406;2023-07-20T03:53:39;1.93;;;1.63;;
16642;SDS011;8435;52.184;5.406;2023-07-20T03:56:06;2.17;;;1.97;;
16642;SDS011;8435;52.184;5.406;2023-07-20T03:58:33;1.90;;;1.80;;
16642;SDS011;8435;52.184;5.406;2023-07-20T04:00:59;1.60;;;1.50;;
16642;SDS011;8435;52.184;5.406;2023-07-20T04:03:26;1.70;;;1.60;;
16642;SDS011;8435;52.184;5.406;2023-07-20T04:05:53;2.33;;;2.23;;
16642;SDS011;8435;52.184;5.406;2023-07-20T04:08:22;1.90;;;1.80;;
16642;SDS011;8435;52.184;5.406;2023-07-20T04:10:49;1.60;;;1.50;;
16642;SDS011;8435;52.184;5.406;2023-07-20T04:13:16;1.90;;;1.70;;
16642;SDS011;8435;52.184;5.406;2023-07-20T04:15:44;1.60;;;1.50;;
16642;SDS011;8435;52.184;5.406;2023-07-20T04:18:11;1.43;;;1.37;;
16642;SDS011;8435;52.184;5.406;2023-07-20T04:20:38;1.90;;;1.80;;
16642;SDS011;8435;52.184;5.406;2023-07-20T04:23:04;2.47;;;2.07;;
16642;SDS011;8435;52.184;5.406;2023-07-20T04:25:33;2.20;;;2.03;;
16642;SDS011;8435;52.184;5.406;2023-07-20T04:28:04;1.90;;;1.80;;
16642;SDS011;8435;52.184;5.406;2023-07-20T04:30:33;1.80;;;1.70;;
16642;SDS011;8435;52.184;5.406;2023-07-20T04:33:00;2.10;;;2.00;;
16642;SDS011;8435;52.184;5.406;2023-07-20T04:38:20;2.00;;;1.90;;
16642;SDS011;8435;52.184;5.406;2023-07-20T04:40:49;2.00;;;1.80;;
16642;SDS011;8435;52.184;5.406;2023-07-20T04:43:16;3.13;;;1.60;;
16642;SDS011;8435;52.184;5.406;2023-07-20T04:45:46;1.70;;;1.60;;
16642;SDS011;8435;52.184;5.406;2023-07-20T04:48:13;2.27;;;2.13;;
16642;SDS011;8435;52.184;5.406;2023-07-20T04:50:42;2.17;;;1.90;;
16642;SDS011;8435;52.184;5.406;2023-07-20T04:53:12;2.80;;;2.07;;
16642;SDS011;8435;52.184;5.406;2023-07-20T04:55:39;2.33;;;2.13;;
16642;SDS011;8435;52.184;5.406;2023-07-20T04:58:08;2.50;;;2.30;;
16642;SDS011;8435;52.184;5.406;2023-07-20T05:00:37;2.20;;;2.10;;
16642;SDS011;8435;52.184;5.406;2023-07-20T05:03:04;2.67;;;2.47;;
16642;SDS011;8435;52.184;5.406;2023-07-20T05:05:31;2.50;;;2.30;;
16642;SDS011;8435;52.184;5.406;2023-07-20T05:07:58;3.03;;;2.30;;
16642;SDS011;8435;52.184;5.406;2023-07-20T05:10:25;2.50;;;2.30;;
16642;SDS011;8435;52.184;5.406;2023-07-20T05:12:51;2.53;;;2.33;;
16642;SDS011;8435;52.184;5.406;2023-07-20T05:15:20;2.70;;;2.50;;
16642;SDS011;8435;52.184;5.406;2023-07-20T05:17:46;2.20;;;2.10;;
16642;SDS011;8435;52.184;5.406;2023-07-20T05:20:13;4.20;;;2.40;;
16642;SDS011;8435;52.184;5.406;2023-07-20T05:22:40;2.30;;;2.10;;
16642;SDS011;8435;52.184;5.406;2023-07-20T05:25:08;2.40;;;2.30;;
16642;SDS011;8435;52.184;5.406;2023-07-20T05:27:36;2.43;;;2.23;;
16642;SDS011;8435;52.184;5.406;2023-07-20T05:30:04;2.47;;;2.27;;
16642;SDS011;8435;52.184;5.406;2023-07-20T05:32:33;2.40;;;2.30;;
16642;SDS011;8435;52.184;5.406;2023-07-20T05:35:01;2.60;;;2.50;;
16642;SDS011;8435;52.184;5.406;2023-07-20T05:37:28;2.27;;;2.10;;
16642;SDS011;8435;52.184;5.406;2023-07-20T05:39:54;2.50;;;2.10;;
16642;SDS011;8435;52.184;5.406;2023-07-20T05:42:22;2.33;;;2.13;;
16642;SDS011;8435;52.184;5.406;2023-07-20T05:44:48;1.97;;;1.87;;
16642;SDS011;8435;52.184;5.406;2023-07-20T05:47:18;2.30;;;2.10;;
16642;SDS011;8435;52.184;5.406;2023-07-20T05:49:46;2.42;;;2.13;;
16642;SDS011;8435;52.184;5.406;2023-07-20T05:52:13;2.08;;;1.98;;
16642;SDS011;8435;52.184;5.406;2023-07-20T05:54:40;2.08;;;1.98;;
16642;SDS011;8435;52.184;5.406;2023-07-20T05:57:07;2.28;;;2.10;;
16642;SDS011;8435;52.184;5.406;2023-07-20T05:59:34;2.22;;;2.13;;
16642;SDS011;8435;52.184;5.406;2023-07-20T06:02:01;2.20;;;2.10;;
16642;SDS011;8435;52.184;5.406;2023-07-20T06:04:28;2.90;;;2.70;;
16642;SDS011;8435;52.184;5.406;2023-07-20T06:06:56;2.58;;;2.38;;
16642;SDS011;8435;52.184;5.406;2023-07-20T06:09:23;2.08;;;1.77;;
16642;SDS011;8435;52.184;5.406;2023-07-20T06:11:50;2.33;;;2.13;;
16642;SDS011;8435;52.184;5.406;2023-07-20T06:14:17;2.10;;;2.00;;
16642;SDS011;8435;52.184;5.406;2023-07-20T06:16:44;1.90;;;1.80;;
16642;SDS011;8435;52.184;5.406;2023-07-20T06:19:11;2.05;;;1.63;;
16642;SDS011;8435;52.184;5.406;2023-07-20T06:21:38;1.33;;;1.33;;
16642;SDS011;8435;52.184;5.406;2023-07-20T06:24:09;1.70;;;1.60;;
16642;SDS011;8435;52.184;5.406;2023-07-20T06:26:37;2.45;;;1.20;;
16642;SDS011;8435;52.184;5.406;2023-07-20T06:29:04;2.58;;;1.23;;
16642;SDS011;8435;52.184;5.406;2023-07-20T06:31:32;1.25;;;0.98;;
16642;SDS011;8435;52.184;5.406;2023-07-20T06:33:59;1.23;;;1.10;;
16642;SDS011;8435;52.184;5.406;2023-07-20T06:36:26;1.30;;;1.20;;
16642;SDS011;8435;52.184;5.406;2023-07-20T06:38:53;1.52;;;1.23;;
16642;SDS011;8435;52.184;5.406;2023-07-20T06:41:22;1.08;;;1.08;;
16642;SDS011;8435;52.184;5.406;2023-07-20T06:43:49;0.95;;;0.95;;
16642;SDS011;8435;52.184;5.406;2023-07-20T06:46:17;1.08;;;1.08;;
16642;SDS011;8435;52.184;5.406;2023-07-20T06:48:44;1.55;;;0.95;;
16642;SDS011;8435;52.184;5.406;2023-07-20T06:51:11;1.10;;;1.00;;
16642;SDS011;8435;52.184;5.406;2023-07-20T06:53:38;1.20;;;1.00;;
16642;SDS011;8435;52.184;5.406;2023-07-20T06:56:04;0.90;;;0.90;;
16642;SDS011;8435;52.184;5.406;2023-07-20T06:58:33;0.80;;;0.80;;
16642;SDS011;8435;52.184;5.406;2023-07-20T07:01:04;1.00;;;1.00;;
16642;SDS011;8435;52.184;5.406;2023-07-20T07:03:31;1.65;;;1.15;;
16642;SDS011;8435;52.184;5.406;2023-07-20T07:06:01;1.45;;;1.00;;
16642;SDS011;8435;52.184;5.406;2023-07-20T07:08:28;2.40;;;1.35;;
16642;SDS011;8435;52.184;5.406;2023-07-20T07:10:55;1.27;;;0.80;;
16642;SDS011;8435;52.184;5.406;2023-07-20T07:13:22;0.85;;;0.80;;
16642;SDS011;8435;52.184;5.406;2023-07-20T07:15:51;2.33;;;1.08;;
16642;SDS011;8435;52.184;5.406;2023-07-20T07:18:21;1.33;;;0.80;;
16642;SDS011;8435;52.184;5.406;2023-07-20T07:20:51;0.73;;;0.73;;
16642;SDS011;8435;52.184;5.406;2023-07-20T07:23:19;1.67;;;0.90;;
16642;SDS011;8435;52.184;5.406;2023-07-20T07:25:51;1.00;;;0.90;;
16642;SDS011;8435;52.184;5.406;2023-07-20T07:28:18;1.73;;;1.10;;
16642;SDS011;8435;52.184;5.406;2023-07-20T07:30:45;0.63;;;0.63;;
16642;SDS011;8435;52.184;5.406;2023-07-20T07:33:13;0.80;;;0.80;;
16642;SDS011;8435;52.184;5.406;2023-07-20T07:35:40;1.00;;;0.60;;
16642;SDS011;8435;52.184;5.406;2023-07-20T07:38:07;0.68;;;0.68;;
16642;SDS011;8435;52.184;5.406;2023-07-20T07:40:36;0.63;;;0.60;;
16642;SDS011;8435;52.184;5.406;2023-07-20T07:43:03;1.15;;;0.80;;
16642;SDS011;8435;52.184;5.406;2023-07-20T07:45:30;0.60;;;0.60;;
16642;SDS011;8435;52.184;5.406;2023-07-20T07:47:58;0.50;;;0.50;;
16642;SDS011;8435;52.184;5.406;2023-07-20T07:50:26;1.65;;;0.75;;
16642;SDS011;8435;52.184;5.406;2023-07-20T07:52:53;0.70;;;0.70;;
16642;SDS011;8435;52.184;5.406;2023-07-20T07:55:20;0.60;;;0.60;;
16642;SDS011;8435;52.184;5.406;2023-07-20T07:57:47;0.65;;;0.65;;
16642;SDS011;8435;52.184;5.406;2023-07-20T08:00:14;0.60;;;0.60;;
16642;SDS011;8435;52.184;5.406;2023-07-20T08:02:44;0.60;;;0.60;;
16642;SDS011;8435;52.184;5.406;2023-07-20T08:05:11;0.60;;;0.60;;
16642;SDS011;8435;52.184;5.406;2023-07-20T08:07:39;0.65;;;0.65;;
16642;SDS011;8435;52.184;5.406;2023-07-20T08:10:07;0.70;;;0.70;;
16642;SDS011;8435;52.184;5.406;2023-07-20T08:12:35;0.60;;;0.60;;
16642;SDS011;8435;52.184;5.406;2023-07-20T08:15:02;0.60;;;0.60;;
16642;SDS011;8435;52.184;5.406;2023-07-20T08:17:32;1.52;;;0.65;;
16642;SDS011;8435;52.184;5.406;2023-07-20T08:19:59;0.60;;;0.60;;
16642;SDS011;8435;52.184;5.406;2023-07-20T08:22:26;0.60;;;0.60;;
16642;SDS011;8435;52.184;5.406;2023-07-20T08:24:54;0.60;;;0.60;;
16642;SDS011;8435;52.184;5.406;2023-07-20T08:27:21;0.52;;;0.52;;
16642;SDS011;8435;52.184;5.406;2023-07-20T08:29:51;0.93;;;0.50;;
16642;SDS011;8435;52.184;5.406;2023-07-20T08:32:17;0.65;;;0.63;;
16642;SDS011;8435;52.184;5.406;2023-07-20T08:34:44;0.50;;;0.50;;
16642;SDS011;8435;52.184;5.406;2023-07-20T08:37:11;0.70;;;0.70;;
16642;SDS011;8435;52.184;5.406;2023-07-20T08:39:38;1.27;;;0.70;;
16642;SDS011;8435;52.184;5.406;2023-07-20T08:42:06;0.70;;;0.70;;
16642;SDS011;8435;52.184;5.406;2023-07-20T08:44:35;0.50;;;0.50;;
16642;SDS011;8435;52.184;5.406;2023-07-20T08:47:04;0.50;;;0.50;;
16642;SDS011;8435;52.184;5.406;2023-07-20T08:49:32;0.43;;;0.43;;
16642;SDS011;8435;52.184;5.406;2023-07-20T08:51:59;0.50;;;0.50;;
16642;SDS011;8435;52.184;5.406;2023-07-20T08:54:27;0.43;;;0.43;;
16642;SDS011;8435;52.184;5.406;2023-07-20T08:56:57;0.50;;;0.50;;
16642;SDS011;8435;52.184;5.406;2023-07-20T08:59:29;0.60;;;0.60;;
16642;SDS011;8435;52.184;5.406;2023-07-20T09:01:57;1.05;;;0.70;;
16642;SDS011;8435;52.184;5.406;2023-07-20T09:04:25;0.80;;;0.80;;
16642;SDS011;8435;52.184;5.406;2023-07-20T09:06:52;0.70;;;0.70;;
16642;SDS011;8435;52.184;5.406;2023-07-20T09:09:18;1.00;;;0.60;;
16642;SDS011;8435;52.184;5.406;2023-07-20T09:11:46;0.57;;;0.57;;
16642;SDS011;8435;52.184;5.406;2023-07-20T09:14:14;0.70;;;0.70;;
16642;SDS011;8435;52.184;5.406;2023-07-20T09:16:50;0.50;;;0.50;;
16642;SDS011;8435;52.184;5.406;2023-07-20T09:19:18;0.70;;;0.50;;
16642;SDS011;8435;52.184;5.406;2023-07-20T09:21:46;0.50;;;0.50;;
16642;SDS011;8435;52.184;5.406;2023-07-20T09:24:13;0.50;;;0.50;;
16642;SDS011;8435;52.184;5.406;2023-07-20T09:26:41;0.73;;;0.50;;
16642;SDS011;8435;52.184;5.406;2023-07-20T09:29:09;0.40;;;0.40;;
16642;SDS011;8435;52.184;5.406;2023-07-20T09:31:36;0.50;;;0.50;;
16642;SDS011;8435;52.184;5.406;2023-07-20T09:34:06;0.52;;;0.52;;
16642;SDS011;8435;52.184;5.406;2023-07-20T09:36:36;0.52;;;0.50;;
16642;SDS011;8435;52.184;5.406;2023-07-20T09:39:03;0.82;;;0.65;;
16642;SDS011;8435;52.184;5.406;2023-07-20T09:41:31;0.50;;;0.50;;
16642;SDS011;8435;52.184;5.406;2023-07-20T09:44:06;0.60;;;0.60;;
16642;SDS011;8435;52.184;5.406;2023-07-20T09:46:41;0.57;;;0.57;;
16642;SDS011;8435;52.184;5.406;2023-07-20T09:49:10;0.60;;;0.57;;
16642;SDS011;8435;52.184;5.406;2023-07-20T09:51:37;0.57;;;0.57;;
16642;SDS011;8435;52.184;5.406;2023-07-20T09:54:04;0.77;;;0.40;;
16642;SDS011;8435;52.184;5.406;2023-07-20T09:56:34;0.68;;;0.60;;
16642;SDS011;8435;52.184;5.406;2023-07-20T09:59:01;0.40;;;0.40;;
16642;SDS011;8435;52.184;5.406;2023-07-20T10:01:29;0.60;;;0.60;;
16642;SDS011;8435;52.184;5.406;2023-07-20T10:03:59;0.60;;;0.60;;
16642;SDS011;8435;52.184;5.406;2023-07-20T10:06:32;0.52;;;0.52;;
16642;SDS011;8435;52.184;5.406;2023-07-20T10:09:01;0.50;;;0.50;;
16642;SDS011;8435;52.184;5.406;2023-07-20T10:11:31;0.60;;;0.60;;
16642;SDS011;8435;52.184;5.406;2023-07-20T10:14:03;0.50;;;0.50;;
16642;SDS011;8435;52.184;5.406;2023-07-20T10:16:31;0.60;;;0.60;;
16642;SDS011;8435;52.184;5.406;2023-07-20T10:19:03;0.80;;;0.80;;
16642;SDS011;8435;52.184;5.406;2023-07-20T10:21:35;0.77;;;0.77;;
16642;SDS011;8435;52.184;5.406;2023-07-20T10:24:06;0.50;;;0.50;;
16642;SDS011;8435;52.184;5.406;2023-07-20T10:26:33;1.63;;;0.60;;
16642;SDS011;8435;52.184;5.406;2023-07-20T10:29:01;0.90;;;0.60;;
16642;SDS011;8435;52.184;5.406;2023-07-20T10:31:29;0.65;;;0.60;;
16642;SDS011;8435;52.184;5.406;2023-07-20T10:33:56;0.60;;;0.60;;
16642;SDS011;8435;52.184;5.406;2023-07-20T10:36:25;0.70;;;0.70;;
16642;SDS011;8435;52.184;5.406;2023-07-20T10:38:54;0.60;;;0.60;;
16642;SDS011;8435;52.184;5.406;2023-07-20T10:41:27;1.05;;;0.55;;
16642;SDS011;8435;52.184;5.406;2023-07-20T10:43:58;0.57;;;0.57;;
16642;SDS011;8435;52.184;5.406;2023-07-20T10:46:42;0.60;;;0.60;;
16642;SDS011;8435;52.184;5.406;2023-07-20T10:49:11;0.60;;;0.60;;
16642;SDS011;8435;52.184;5.406;2023-07-20T10:51:42;0.50;;;0.50;;
16642;SDS011;8435;52.184;5.406;2023-07-20T10:57:28;0.65;;;0.65;;
16642;SDS011;8435;52.184;5.406;2023-07-20T11:00:09;0.65;;;0.63;;
16642;SDS011;8435;52.184;5.406;2023-07-20T11:02:48;0.80;;;0.70;;
16642;SDS011;8435;52.184;5.406;2023-07-20T11:05:34;0.50;;;0.50;;
16642;SDS011;8435;52.184;5.406;2023-07-20T11:08:06;0.60;;;0.60;;
16642;SDS011;8435;52.184;5.406;2023-07-20T11:10:38;0.50;;;0.50;;
16642;SDS011;8435;52.184;5.406;2023-07-20T11:18:37;4.20;;;3.63;;
16642;SDS011;8435;52.184;5.406;2023-07-20T11:21:06;1.00;;;1.00;;
16642;SDS011;8435;52.184;5.406;2023-07-20T11:23:34;0.70;;;0.70;;
16642;SDS011;8435;52.184;5.406;2023-07-20T11:26:05;0.63;;;0.63;;
16642;SDS011;8435;52.184;5.406;2023-07-20T11:28:33;0.52;;;0.50;;
16642;SDS011;8435;52.184;5.406;2023-07-20T11:31:00;0.40;;;0.40;;
16642;SDS011;8435;52.184;5.406;2023-07-20T11:33:32;0.50;;;0.50;;
16642;SDS011;8435;52.184;5.406;2023-07-20T11:35:59;0.75;;;0.50;;
16642;SDS011;8435;52.184;5.406;2023-07-20T11:38:26;0.40;;;0.40;;
16642;SDS011;8435;52.184;5.406;2023-07-20T11:40:53;0.60;;;0.60;;
16642;SDS011;8435;52.184;5.406;2023-07-20T11:43:21;0.40;;;0.40;;
16642;SDS011;8435;52.184;5.406;2023-07-20T11:45:51;0.82;;;0.60;;
16642;SDS011;8435;52.184;5.406;2023-07-20T11:48:18;0.57;;;0.57;;
16642;SDS011;8435;52.184;5.406;2023-07-20T11:50:45;0.50;;;0.50;;
16642;SDS011;8435;52.184;5.406;2023-07-20T11:53:11;0.55;;;0.55;;
16642;SDS011;8435;52.184;5.406;2023-07-20T11:55:39;0.47;;;0.47;;
16642;SDS011;8435;52.184;5.406;2023-07-20T11:58:08;0.40;;;0.40;;
16642;SDS011;8435;52.184;5.406;2023-07-20T12:00:39;0.50;;;0.50;;
16642;SDS011;8435;52.184;5.406;2023-07-20T12:03:06;0.50;;;0.50;;
16642;SDS011;8435;52.184;5.406;2023-07-20T12:05:34;0.80;;;0.60;;
16642;SDS011;8435;52.184;5.406;2023-07-20T12:08:01;0.60;;;0.60;;
16642;SDS011;8435;52.184;5.406;2023-07-20T12:10:28;0.30;;;0.30;;
16642;SDS011;8435;52.184;5.406;2023-07-20T12:13:00;0.55;;;0.40;;
16642;SDS011;8435;52.184;5.406;2023-07-20T12:15:27;0.50;;;0.50;;
16642;SDS011;8435;52.184;5.406;2023-07-20T12:17:59;0.57;;;0.57;;
16642;SDS011;8435;52.184;5.406;2023-07-20T12:20:29;0.80;;;0.50;;
16642;SDS011;8435;52.184;5.406;2023-07-20T12:22:58;0.60;;;0.60;;
16642;SDS011;8435;52.184;5.406;2023-07-20T12:25:34;0.50;;;0.50;;
16642;SDS011;8435;52.184;5.406;2023-07-20T12:28:04;0.68;;;0.68;;
16642;SDS011;8435;52.184;5.406;2023-07-20T12:30:32;2.08;;;0.77;;
16642;SDS011;8435;52.184;5.406;2023-07-20T12:33:01;0.40;;;0.40;;
16642;SDS011;8435;52.184;5.406;2023-07-20T12:35:29;1.00;;;0.60;;
16642;SDS011;8435;52.184;5.406;2023-07-20T12:37:56;1.48;;;0.47;;
16642;SDS011;8435;52.184;5.406;2023-07-20T12:40:23;0.60;;;0.52;;
16642;SDS011;8435;52.184;5.406;2023-07-20T12:42:50;0.65;;;0.65;;
16642;SDS011;8435;52.184;5.406;2023-07-20T12:45:17;0.50;;;0.50;;
16642;SDS011;8435;52.184;5.406;2023-07-20T12:47:45;0.50;;;0.50;;
16642;SDS011;8435;52.184;5.406;2023-07-20T12:50:14;0.47;;;0.47;;
16642;SDS011;8435;52.184;5.406;2023-07-20T12:52:41;0.60;;;0.60;;
16642;SDS011;8435;52.184;5.406;2023-07-20T12:55:09;0.50;;;0.50;;
16642;SDS011;8435;52.184;5.406;2023-07-20T12:57:37;0.77;;;0.52;;
16642;SDS011;8435;52.184;5.406;2023-07-20T13:00:05;0.50;;;0.50;;
16642;SDS011;8435;52.184;5.406;2023-07-20T13:02:34;0.60;;;0.60;;
16642;SDS011;8435;52.184;5.406;2023-07-20T13:05:01;0.60;;;0.60;;
16642;SDS011;8435;52.184;5.406;2023-07-20T13:07:31;0.93;;;0.70;;
16642;SDS011;8435;52.184;5.406;2023-07-20T13:09:58;0.60;;;0.60;;
16642;SDS011;8435;52.184;5.406;2023-07-20T13:12:26;1.25;;;0.60;;
16642;SDS011;8435;52.184;5.406;2023-07-20T13:14:54;0.80;;;0.80;;
16642;SDS011;8435;52.184;5.406;2023-07-20T13:17:22;0.70;;;0.52;;
16642;SDS011;8435;52.184;5.406;2023-07-20T13:19:49;0.50;;;0.50;;
16642;SDS011;8435;52.184;5.406;2023-07-20T13:22:16;0.60;;;0.60;;
16642;SDS011;8435;52.184;5.406;2023-07-20T13:24:45;0.68;;;0.68;;
16642;SDS011;8435;52.184;5.406;2023-07-20T13:27:13;0.70;;;0.70;;
16642;SDS011;8435;52.184;5.406;2023-07-20T13:29:41;0.52;;;0.52;;
16642;SDS011;8435;52.184;5.406;2023-07-20T13:32:08;0.65;;;0.63;;
16642;SDS011;8435;52.184;5.406;2023-07-20T13:34:35;0.70;;;0.70;;
16642;SDS011;8435;52.184;5.406;2023-07-20T13:37:02;1.65;;;0.65;;
16642;SDS011;8435;52.184;5.406;2023-07-20T13:39:31;1.65;;;0.60;;
16642;SDS011;8435;52.184;5.406;2023-07-20T13:41:59;1.50;;;0.65;;
16642;SDS011;8435;52.184;5.406;2023-07-20T13:44:29;0.75;;;0.60;;
16642;SDS011;8435;52.184;5.406;2023-07-20T13:46:56;0.50;;;0.50;;
16642;SDS011;8435;52.184;5.406;2023-07-20T13:49:23;0.80;;;0.80;;
16642;SDS011;8435;52.184;5.406;2023-07-20T13:51:52;0.60;;;0.60;;
16642;SDS011;8435;52.184;5.406;2023-07-20T13:54:19;0.68;;;0.68;;
16642;SDS011;8435;52.184;5.406;2023-07-20T13:56:47;1.67;;;0.55;;
16642;SDS011;8435;52.184;5.406;2023-07-20T13:59:16;0.60;;;0.60;;
16642;SDS011;8435;52.184;5.406;2023-07-20T14:01:43;0.82;;;0.77;;
16642;SDS011;8435;52.184;5.406;2023-07-20T14:04:10;0.77;;;0.77;;
16642;SDS011;8435;52.184;5.406;2023-07-20T14:06:38;0.70;;;0.70;;
16642;SDS011;8435;52.184;5.406;2023-07-20T14:09:05;3.95;;;1.00;;
16642;SDS011;8435;52.184;5.406;2023-07-20T14:11:34;0.63;;;0.63;;
16642;SDS011;8435;52.184;5.406;2023-07-20T14:14:01;0.80;;;0.75;;
16642;SDS011;8435;52.184;5.406;2023-07-20T14:16:29;3.08;;;0.90;;
16642;SDS011;8435;52.184;5.406;2023-07-20T14:18:57;0.90;;;0.90;;
16642;SDS011;8435;52.184;5.406;2023-07-20T14:21:24;1.92;;;0.95;;
16642;SDS011;8435;52.184;5.406;2023-07-20T14:23:51;0.80;;;0.80;;
16642;SDS011;8435;52.184;5.406;2023-07-20T14:26:23;1.00;;;1.00;;
16642;SDS011;8435;52.184;5.406;2023-07-20T14:28:50;1.23;;;1.13;;
16642;SDS011;8435;52.184;5.406;2023-07-20T14:31:17;0.80;;;0.80;;
16642;SDS011;8435;52.184;5.406;2023-07-20T14:33:46;1.48;;;1.33;;
16642;SDS011;8435;52.184;5.406;2023-07-20T14:36:13;0.75;;;0.70;;
16642;SDS011;8435;52.184;5.406;2023-07-20T14:38:42;0.60;;;0.60;;
16642;SDS011;8435;52.184;5.406;2023-07-20T14:41:12;2.03;;;0.70;;
16642;SDS011;8435;52.184;5.406;2023-07-20T14:43:39;0.60;;;0.60;;
16642;SDS011;8435;52.184;5.406;2023-07-20T14:46:05;0.73;;;0.73;;
16642;SDS011;8435;52.184;5.406;2023-07-20T14:48:32;0.70;;;0.70;;
16642;SDS011;8435;52.184;5.406;2023-07-20T14:51:00;0.50;;;0.50;;
16642;SDS011;8435;52.184;5.406;2023-07-20T14:53:32;0.70;;;0.70;;
16642;SDS011;8435;52.184;5.406;2023-07-20T14:56:00;2.17;;;0.63;;
16642;SDS011;8435;52.184;5.406;2023-07-20T14:58:27;0.60;;;0.60;;
16642;SDS011;8435;52.184;5.406;2023-07-20T15:00:54;0.90;;;0.90;;
16642;SDS011;8435;52.184;5.406;2023-07-20T15:03:20;2.33;;;1.00;;
16642;SDS011;8435;52.184;5.406;2023-07-20T15:05:47;0.88;;;0.88;;
16642;SDS011;8435;52.184;5.406;2023-07-20T15:08:17;1.02;;;0.80;;
16642;SDS011;8435;52.184;5.406;2023-07-20T15:10:45;1.35;;;0.85;;
16642;SDS011;8435;52.184;5.406;2023-07-20T15:13:12;0.95;;;0.95;;
16642;SDS011;8435;52.184;5.406;2023-07-20T15:15:39;0.95;;;0.90;;
16642;SDS011;8435;52.184;5.406;2023-07-20T15:18:06;1.13;;;0.98;;
16642;SDS011;8435;52.184;5.406;2023-07-20T15:20:33;0.80;;;0.80;;
16642;SDS011;8435;52.184;5.406;2023-07-20T15:23:00;0.60;;;0.60;;
16642;SDS011;8435;52.184;5.406;2023-07-20T15:25:29;1.70;;;1.27;;